sensor_id;sensor_type;location;lat;lon;timestamp;pressure;altitude;pressure_sealevel;temperature;humidity
55351;BME280;62194;49.480;10.986;2023-04-01T00:00:02;96750.72;;;7.85;86.53
55351;BME280;62194;49.480;10.986;2023-04-01T00:00:08;96754.16;;;7.82;86.47
55351;BME280;62194;49.480;10.986;2023-04-01T00:00:16;96758.94;;;7.89;86.33
55351;BME280;62194;49.480;10.986;2023-04-01T00:00:22;96758.50;;;7.87;86.46
55351;BME280;62194;49.480;10.986;2023-04-01T00:00:27;96761.97;;;7.87;86.45
55351;BME280;62194;49.480;10.986;2023-04-01T00:00:33;96762.03;;;7.91;86.36
55351;BME280;62194;49.480;10.986;2023-04-01T00:00:38;96761.63;;;7.89;86.17
55351;BME280;62194;49.480;10.986;2023-04-01T00:00:44;96760.47;;;7.90;86.10
55351;BME280;62194;49.480;10.986;2023-04-01T00:00:52;96757.75;;;7.90;86.17
55351;BME280;62194;49.480;10.986;2023-04-01T00:00:59;96762.84;;;7.91;85.97
55351;BME280;62194;49.480;10.986;2023-04-01T00:01:06;96758.19;;;7.92;85.95
55351;BME280;62194;49.480;10.986;2023-04-01T00:01:13;96749.19;;;7.88;86.02
55351;BME280;62194;49.480;10.986;2023-04-01T00:01:19;96754.31;;;7.93;85.90
55351;BME280;62194;49.480;10.986;2023-04-01T00:01:24;96762.47;;;7.93;85.61
55351;BME280;62194;49.480;10.986;2023-04-01T00:01:30;96753.56;;;7.92;85.92
55351;BME280;62194;49.480;10.986;2023-04-01T00:01:35;96760.97;;;7.95;85.91
55351;BME280;62194;49.480;10.986;2023-04-01T00:01:40;96746.19;;;7.93;86.55
55351;BME280;62194;49.480;10.986;2023-04-01T00:01:46;96755.94;;;7.97;86.78
55351;BME280;62194;49.480;10.986;2023-04-01T00:01:51;96743.84;;;7.91;86.48
55351;BME280;62194;49.480;10.986;2023-04-01T00:01:56;96745.41;;;7.92;86.37
55351;BME280;62194;49.480;10.986;2023-04-01T00:02:02;96760.25;;;7.98;86.29
55351;BME280;62194;49.480;10.986;2023-04-01T00:02:07;96759.09;;;8.00;85.93
55351;BME280;62194;49.480;10.986;2023-04-01T00:02:13;96757.53;;;7.98;85.86
55351;BME280;62194;49.480;10.986;2023-04-01T00:02:18;96750.47;;;7.94;85.62
55351;BME280;62194;49.480;10.986;2023-04-01T00:02:24;96752.03;;;7.95;85.42
55351;BME280;62194;49.480;10.986;2023-04-01T00:02:29;96743.84;;;7.91;85.53
55351;BME280;62194;49.480;10.986;2023-04-01T00:02:34;96759.47;;;7.98;85.76
55351;BME280;62194;49.480;10.986;2023-04-01T00:02:39;96750.84;;;7.92;85.98
55351;BME280;62194;49.480;10.986;2023-04-01T00:02:45;96755.59;;;7.99;85.80
55351;BME280;62194;49.480;10.986;2023-04-01T00:02:51;96758.31;;;7.99;85.82
55351;BME280;62194;49.480;10.986;2023-04-01T00:02:56;96757.16;;;8.00;85.62
55351;BME280;62194;49.480;10.986;2023-04-01T00:03:01;96754.81;;;7.98;85.76
55351;BME280;62194;49.480;10.986;2023-04-01T00:03:07;96756.38;;;8.00;85.69
55351;BME280;62194;49.480;10.986;2023-04-01T00:03:12;96749.38;;;7.98;85.49
55351;BME280;62194;49.480;10.986;2023-04-01T00:03:18;96764.16;;;8.01;85.78
55351;BME280;62194;49.480;10.986;2023-04-01T00:03:24;96763.34;;;8.01;85.76
55351;BME280;62194;49.480;10.986;2023-04-01T00:03:30;96760.59;;;7.97;85.67
55351;BME280;62194;49.480;10.986;2023-04-01T00:03:38;96757.88;;;7.97;85.75
55351;BME280;62194;49.480;10.986;2023-04-01T00:03:44;96768.44;;;8.02;85.83
55351;BME280;62194;49.480;10.986;2023-04-01T00:03:49;96753.16;;;7.94;85.69
55351;BME280;62194;49.480;10.986;2023-04-01T00:03:54;96755.94;;;7.97;85.67
55351;BME280;62194;49.480;10.986;2023-04-01T00:04:01;96744.69;;;7.95;85.50
55351;BME280;62194;49.480;10.986;2023-04-01T00:04:07;96759.50;;;8.02;85.89
55351;BME280;62194;49.480;10.986;2023-04-01T00:04:12;96752.44;;;7.97;85.65
55351;BME280;62194;49.480;10.986;2023-04-01T00:04:17;96749.72;;;7.97;85.60
55351;BME280;62194;49.480;10.986;2023-04-01T00:04:25;96753.59;;;7.96;85.59
55351;BME280;62194;49.480;10.986;2023-04-01T00:04:30;96754.09;;;8.02;85.55
55351;BME280;62194;49.480;10.986;2023-04-01T00:04:35;96757.97;;;8.04;85.44
55351;BME280;62194;49.480;10.986;2023-04-01T00:04:41;96751.78;;;8.04;85.63
55351;BME280;62194;49.480;10.986;2023-04-01T00:04:46;96757.19;;;8.04;85.76
55351;BME280;62194;49.480;10.986;2023-04-01T00:04:51;96752.56;;;8.04;85.73
55351;BME280;62194;49.480;10.986;2023-04-01T00:04:57;96743.97;;;7.98;85.82
55351;BME280;62194;49.480;10.986;2023-04-01T00:05:03;96744.78;;;8.03;85.97
55351;BME280;62194;49.480;10.986;2023-04-01T00:05:09;96756.47;;;8.07;85.24
55351;BME280;62194;49.480;10.986;2023-04-01T00:05:15;96755.69;;;8.06;85.04
55351;BME280;62194;49.480;10.986;2023-04-01T00:05:21;96746.00;;;8.05;84.97
55351;BME280;62194;49.480;10.986;2023-04-01T00:05:27;96756.47;;;8.07;84.78
55351;BME280;62194;49.480;10.986;2023-04-01T00:05:32;96761.97;;;8.10;85.25
55351;BME280;62194;49.480;10.986;2023-04-01T00:05:37;96747.19;;;8.08;84.70
55351;BME280;62194;49.480;10.986;2023-04-01T00:05:43;96746.78;;;8.06;84.68
55351;BME280;62194;49.480;10.986;2023-04-01T00:05:48;96755.81;;;8.13;84.61
55351;BME280;62194;49.480;10.986;2023-04-01T00:05:55;96765.09;;;8.12;84.49
55351;BME280;62194;49.480;10.986;2023-04-01T00:06:03;96763.59;;;8.15;84.54
55351;BME280;62194;49.480;10.986;2023-04-01T00:06:12;96751.97;;;8.14;84.70
55351;BME280;62194;49.480;10.986;2023-04-01T00:06:18;96761.72;;;8.19;84.83
55351;BME280;62194;49.480;10.986;2023-04-01T00:06:24;96757.06;;;8.19;84.58
55351;BME280;62194;49.480;10.986;2023-04-01T00:06:31;96752.00;;;8.18;84.68
55351;BME280;62194;49.480;10.986;2023-04-01T00:06:37;96751.97;;;8.14;84.52
55351;BME280;62194;49.480;10.986;2023-04-01T00:06:42;96763.28;;;8.20;84.46
55351;BME280;62194;49.480;10.986;2023-04-01T00:06:47;96756.56;;;8.14;84.36
55351;BME280;62194;49.480;10.986;2023-04-01T00:06:53;96758.94;;;8.15;84.59
55351;BME280;62194;49.480;10.986;2023-04-01T00:06:58;96759.38;;;8.17;84.67
55351;BME280;62194;49.480;10.986;2023-04-01T00:07:05;96764.00;;;8.17;84.60
55351;BME280;62194;49.480;10.986;2023-04-01T00:07:10;96758.13;;;8.11;84.32
55351;BME280;62194;49.480;10.986;2023-04-01T00:07:15;96752.31;;;8.13;84.77
55351;BME280;62194;49.480;10.986;2023-04-01T00:07:21;96756.56;;;8.14;84.81
55351;BME280;62194;49.480;10.986;2023-04-01T00:07:29;96757.75;;;8.13;84.76
55351;BME280;62194;49.480;10.986;2023-04-01T00:07:37;96756.97;;;8.12;84.77
55351;BME280;62194;49.480;10.986;2023-04-01T00:07:42;96759.72;;;8.16;84.67
55351;BME280;62194;49.480;10.986;2023-04-01T00:07:48;96749.53;;;8.09;84.64
55351;BME280;62194;49.480;10.986;2023-04-01T00:07:53;96765.53;;;8.14;84.66
55351;BME280;62194;49.480;10.986;2023-04-01T00:07:59;96756.97;;;8.12;84.62
55351;BME280;62194;49.480;10.986;2023-04-01T00:08:05;96756.56;;;8.14;84.81
55351;BME280;62194;49.480;10.986;2023-04-01T00:08:11;96751.47;;;8.09;85.08
55351;BME280;62194;49.480;10.986;2023-04-01T00:08:16;96766.38;;;8.18;85.19
55351;BME280;62194;49.480;10.986;2023-04-01T00:08:22;96765.94;;;8.16;85.33
55351;BME280;62194;49.480;10.986;2023-04-01T00:08:28;96759.38;;;8.17;85.37
55351;BME280;62194;49.480;10.986;2023-04-01T00:08:34;96759.38;;;8.17;85.20
55351;BME280;62194;49.480;10.986;2023-04-01T00:08:39;96770.28;;;8.21;85.15
55351;BME280;62194;49.480;10.986;2023-04-01T00:08:46;96749.66;;;8.16;85.23
55351;BME280;62194;49.480;10.986;2023-04-01T00:08:51;96759.38;;;8.17;85.19
55351;BME280;62194;49.480;10.986;2023-04-01T00:08:58;96753.13;;;8.17;84.85
55351;BME280;62194;49.480;10.986;2023-04-01T00:09:03;96763.69;;;8.22;84.34
55351;BME280;62194;49.480;10.986;2023-04-01T00:09:09;96753.19;;;8.20;83.98
55351;BME280;62194;49.480;10.986;2023-04-01T00:09:14;96757.84;;;8.20;84.44
55351;BME280;62194;49.480;10.986;2023-04-01T00:09:20;96757.50;;;8.21;84.11
55351;BME280;62194;49.480;10.986;2023-04-01T00:09:25;96757.06;;;8.19;84.09
55351;BME280;62194;49.480;10.986;2023-04-01T00:09:31;96748.81;;;8.12;83.96
55351;BME280;62194;49.480;10.986;2023-04-01T00:09:36;96761.75;;;8.23;84.06
55351;BME280;62194;49.480;10.986;2023-04-01T00:09:42;96747.72;;;8.17;84.27
55351;BME280;62194;49.480;10.986;2023-04-01T00:09:47;96755.91;;;8.20;84.18
55351;BME280;62194;49.480;10.986;2023-04-01T00:09:53;96755.84;;;8.17;84.15
55351;BME280;62194;49.480;10.986;2023-04-01T00:09:58;96762.91;;;8.21;84.19
55351;BME280;62194;49.480;10.986;2023-04-01T00:10:07;96759.78;;;8.19;84.16
55351;BME280;62194;49.480;10.986;2023-04-01T00:10:13;96769.91;;;8.23;84.02
55351;BME280;62194;49.480;10.986;2023-04-01T00:10:19;96768.34;;;8.21;84.06
55351;BME280;62194;49.480;10.986;2023-04-01T00:10:25;96748.88;;;8.16;84.16
55351;BME280;62194;49.480;10.986;2023-04-01T00:10:30;96758.16;;;8.15;84.11
55351;BME280;62194;49.480;10.986;2023-04-01T00:10:35;96756.66;;;8.17;84.14
55351;BME280;62194;49.480;10.986;2023-04-01T00:10:40;96768.75;;;8.24;84.31
55351;BME280;62194;49.480;10.986;2023-04-01T00:10:46;96764.47;;;8.23;84.42
55351;BME280;62194;49.480;10.986;2023-04-01T00:10:52;96759.78;;;8.19;84.18
55351;BME280;62194;49.480;10.986;2023-04-01T00:10:57;96755.91;;;8.20;84.27
55351;BME280;62194;49.480;10.986;2023-04-01T00:11:03;96760.56;;;8.20;84.13
55351;BME280;62194;49.480;10.986;2023-04-01T00:11:08;96759.44;;;8.21;84.11
55351;BME280;62194;49.480;10.986;2023-04-01T00:11:14;96760.22;;;8.21;84.10
55351;BME280;62194;49.480;10.986;2023-04-01T00:11:19;96753.56;;;8.19;83.92
55351;BME280;62194;49.480;10.986;2023-04-01T00:11:26;96765.63;;;8.21;83.96
55351;BME280;62194;49.480;10.986;2023-04-01T00:11:32;96755.13;;;8.20;83.94
55351;BME280;62194;49.480;10.986;2023-04-01T00:11:37;96754.72;;;8.18;83.94
55351;BME280;62194;49.480;10.986;2023-04-01T00:11:43;96755.91;;;8.20;83.94
55351;BME280;62194;49.480;10.986;2023-04-01T00:11:50;96769.13;;;8.22;83.95
55351;BME280;62194;49.480;10.986;2023-04-01T00:11:55;96746.16;;;8.16;83.83
55351;BME280;62194;49.480;10.986;2023-04-01T00:12:00;96762.19;;;8.25;83.94
55351;BME280;62194;49.480;10.986;2023-04-01T00:12:06;96759.78;;;8.19;84.03
55351;BME280;62194;49.480;10.986;2023-04-01T00:12:11;96761.72;;;8.19;83.86
55351;BME280;62194;49.480;10.986;2023-04-01T00:12:17;96764.03;;;8.20;84.00
55351;BME280;62194;49.480;10.986;2023-04-01T00:12:22;96765.69;;;8.25;84.09
55351;BME280;62194;49.480;10.986;2023-04-01T00:12:30;96750.06;;;8.18;84.05
55351;BME280;62194;49.480;10.986;2023-04-01T00:12:35;96764.91;;;8.25;84.12
55351;BME280;62194;49.480;10.986;2023-04-01T00:12:41;96764.91;;;8.25;83.81
55351;BME280;62194;49.480;10.986;2023-04-01T00:12:47;96758.25;;;8.22;83.74
55351;BME280;62194;49.480;10.986;2023-04-01T00:12:52;96762.53;;;8.23;83.83
55351;BME280;62194;49.480;10.986;2023-04-01T00:12:58;96761.47;;;8.28;83.92
55351;BME280;62194;49.480;10.986;2023-04-01T00:13:03;96756.72;;;8.21;83.83
55351;BME280;62194;49.480;10.986;2023-04-01T00:13:09;96754.78;;;8.21;83.63
55351;BME280;62194;49.480;10.986;2023-04-01T00:13:15;96761.03;;;8.26;83.66
55351;BME280;62194;49.480;10.986;2023-04-01T00:13:20;96761.03;;;8.26;83.06
55351;BME280;62194;49.480;10.986;2023-04-01T00:13:26;96759.09;;;8.26;83.42
55351;BME280;62194;49.480;10.986;2023-04-01T00:13:32;96762.59;;;8.27;83.45
55351;BME280;62194;49.480;10.986;2023-04-01T00:13:40;96759.53;;;8.28;83.75
55351;BME280;62194;49.480;10.986;2023-04-01T00:13:45;96753.66;;;8.26;83.66
55351;BME280;62194;49.480;10.986;2023-04-01T00:13:51;96755.56;;;8.22;83.52
55351;BME280;62194;49.480;10.986;2023-04-01T00:13:56;96754.41;;;8.23;83.58
55351;BME280;62194;49.480;10.986;2023-04-01T00:14:01;96753.63;;;8.23;83.53
55351;BME280;62194;49.480;10.986;2023-04-01T00:14:07;96761.03;;;8.26;83.22
55351;BME280;62194;49.480;10.986;2023-04-01T00:14:13;96756.34;;;8.23;83.25
55351;BME280;62194;49.480;10.986;2023-04-01T00:14:18;96747.34;;;8.18;83.26
55351;BME280;62194;49.480;10.986;2023-04-01T00:14:23;96755.19;;;8.24;83.45
55351;BME280;62194;49.480;10.986;2023-04-01T00:14:29;96751.28;;;8.21;83.38
55351;BME280;62194;49.480;10.986;2023-04-01T00:14:34;96760.66;;;8.27;83.50
55351;BME280;62194;49.480;10.986;2023-04-01T00:14:42;96745.13;;;8.24;83.43
55351;BME280;62194;49.480;10.986;2023-04-01T00:14:47;96764.97;;;8.28;83.59
55351;BME280;62194;49.480;10.986;2023-04-01T00:14:52;96752.88;;;8.26;83.41
55351;BME280;62194;49.480;10.986;2023-04-01T00:14:58;96755.19;;;8.24;83.62
55351;BME280;62194;49.480;10.986;2023-04-01T00:15:05;96750.16;;;8.26;83.16
55351;BME280;62194;49.480;10.986;2023-04-01T00:15:11;96752.59;;;8.31;83.43
55351;BME280;62194;49.480;10.986;2023-04-01T00:15:17;96756.09;;;8.31;83.34
55351;BME280;62194;49.480;10.986;2023-04-01T00:15:22;96755.22;;;8.27;83.68
55351;BME280;62194;49.480;10.986;2023-04-01T00:15:28;96757.22;;;8.30;83.72
55351;BME280;62194;49.480;10.986;2023-04-01T00:15:33;96759.56;;;8.32;84.00
55351;BME280;62194;49.480;10.986;2023-04-01T00:15:38;96762.34;;;8.35;84.38
55351;BME280;62194;49.480;10.986;2023-04-01T00:15:44;96754.88;;;8.29;84.00
55351;BME280;62194;49.480;10.986;2023-04-01T00:15:49;96753.75;;;8.33;83.66
55351;BME280;62194;49.480;10.986;2023-04-01T00:15:55;96753.75;;;8.33;83.75
55351;BME280;62194;49.480;10.986;2023-04-01T00:16:01;96752.94;;;8.29;83.66
55351;BME280;62194;49.480;10.986;2023-04-01T00:16:07;96762.72;;;8.34;83.49
55351;BME280;62194;49.480;10.986;2023-04-01T00:16:13;96758.84;;;8.35;83.39
55351;BME280;62194;49.480;10.986;2023-04-01T00:16:19;96746.34;;;8.30;83.35
55351;BME280;62194;49.480;10.986;2023-04-01T00:16:25;96752.16;;;8.29;83.29
55351;BME280;62194;49.480;10.986;2023-04-01T00:16:30;96752.94;;;8.29;83.29
55351;BME280;62194;49.480;10.986;2023-04-01T00:16:36;96755.66;;;8.29;83.10
55351;BME280;62194;49.480;10.986;2023-04-01T00:16:41;96768.94;;;8.34;83.29
55351;BME280;62194;49.480;10.986;2023-04-01T00:16:46;96758.75;;;8.28;83.36
55351;BME280;62194;49.480;10.986;2023-04-01T00:16:52;96757.59;;;8.29;83.58
55351;BME280;62194;49.480;10.986;2023-04-01T00:16:57;96768.16;;;8.34;83.35
55351;BME280;62194;49.480;10.986;2023-04-01T00:17:03;96758.78;;;8.31;83.34
55351;BME280;62194;49.480;10.986;2023-04-01T00:17:08;96756.03;;;8.28;83.84
55351;BME280;62194;49.480;10.986;2023-04-01T00:17:13;96752.94;;;8.29;83.60
55351;BME280;62194;49.480;10.986;2023-04-01T00:17:19;96756.09;;;8.31;83.69
55351;BME280;62194;49.480;10.986;2023-04-01T00:17:24;96760.72;;;8.31;83.67
55351;BME280;62194;49.480;10.986;2023-04-01T00:17:30;96751.72;;;8.27;83.92
55351;BME280;62194;49.480;10.986;2023-04-01T00:17:35;96753.31;;;8.28;83.97
55351;BME280;62194;49.480;10.986;2023-04-01T00:17:41;96758.38;;;8.29;84.18
55351;BME280;62194;49.480;10.986;2023-04-01T00:17:46;96747.47;;;8.26;84.07
55351;BME280;62194;49.480;10.986;2023-04-01T00:17:51;96763.44;;;8.31;84.42
55351;BME280;62194;49.480;10.986;2023-04-01T00:17:57;96760.72;;;8.31;84.11
55351;BME280;62194;49.480;10.986;2023-04-01T00:18:05;96759.91;;;8.30;83.77
55351;BME280;62194;49.480;10.986;2023-04-01T00:18:11;96743.19;;;8.25;83.60
55351;BME280;62194;49.480;10.986;2023-04-01T00:18:17;96752.94;;;8.29;83.41
55351;BME280;62194;49.480;10.986;2023-04-01T00:18:23;96747.47;;;8.26;83.30
55351;BME280;62194;49.480;10.986;2023-04-01T00:18:29;96765.78;;;8.32;83.24
55351;BME280;62194;49.480;10.986;2023-04-01T00:18:35;96745.94;;;8.28;83.18
55351;BME280;62194;49.480;10.986;2023-04-01T00:18:40;96741.97;;;8.22;83.48
55351;BME280;62194;49.480;10.986;2023-04-01T00:18:46;96751.31;;;8.25;83.41
55351;BME280;62194;49.480;10.986;2023-04-01T00:18:54;96757.63;;;8.32;83.44
55351;BME280;62194;49.480;10.986;2023-04-01T00:19:00;96752.22;;;8.32;83.30
55351;BME280;62194;49.480;10.986;2023-04-01T00:19:05;96752.59;;;8.31;83.31
55351;BME280;62194;49.480;10.986;2023-04-01T00:19:11;96754.50;;;8.30;83.41
55351;BME280;62194;49.480;10.986;2023-04-01T00:19:16;96755.31;;;8.31;83.52
55351;BME280;62194;49.480;10.986;2023-04-01T00:19:21;96758.41;;;8.33;83.50
55351;BME280;62194;49.480;10.986;2023-04-01T00:19:27;96753.38;;;8.31;83.48
55351;BME280;62194;49.480;10.986;2023-04-01T00:19:34;96751.38;;;8.28;83.27
55351;BME280;62194;49.480;10.986;2023-04-01T00:19:40;96749.88;;;8.31;83.41
55351;BME280;62194;49.480;10.986;2023-04-01T00:19:45;96752.22;;;8.32;83.40
55351;BME280;62194;49.480;10.986;2023-04-01T00:19:50;96749.44;;;8.29;83.54
55351;BME280;62194;49.480;10.986;2023-04-01T00:19:56;96760.78;;;8.34;83.39
55351;BME280;62194;49.480;10.986;2023-04-01T00:20:05;96750.66;;;8.31;83.39
55351;BME280;62194;49.480;10.986;2023-04-01T00:20:12;96749.44;;;8.29;83.53
55351;BME280;62194;49.480;10.986;2023-04-01T00:20:19;96753.72;;;8.30;83.35
55351;BME280;62194;49.480;10.986;2023-04-01T00:20:25;96755.34;;;8.34;83.20
55351;BME280;62194;49.480;10.986;2023-04-01T00:20:30;96757.28;;;8.34;83.29
55351;BME280;62194;49.480;10.986;2023-04-01T00:20:36;96748.22;;;8.26;83.43
55351;BME280;62194;49.480;10.986;2023-04-01T00:20:46;96752.22;;;8.32;83.44
55351;BME280;62194;49.480;10.986;2023-04-01T00:20:52;96743.59;;;8.27;83.37
55351;BME280;62194;49.480;10.986;2023-04-01T00:20:58;96752.16;;;8.29;83.22
55351;BME280;62194;49.480;10.986;2023-04-01T00:21:03;96754.13;;;8.32;82.86
55351;BME280;62194;49.480;10.986;2023-04-01T00:21:09;96754.13;;;8.32;83.30
55351;BME280;62194;49.480;10.986;2023-04-01T00:21:15;96763.84;;;8.33;83.26
55351;BME280;62194;49.480;10.986;2023-04-01T00:21:21;96761.50;;;8.31;83.23
55351;BME280;62194;49.480;10.986;2023-04-01T00:21:27;96760.72;;;8.31;83.22
55351;BME280;62194;49.480;10.986;2023-04-01T00:21:32;96755.22;;;8.27;83.14
55351;BME280;62194;49.480;10.986;2023-04-01T00:21:38;96754.44;;;8.27;83.34
55351;BME280;62194;49.480;10.986;2023-04-01T00:21:43;96765.00;;;8.32;83.37
55351;BME280;62194;49.480;10.986;2023-04-01T00:21:48;96748.63;;;8.25;83.27
55351;BME280;62194;49.480;10.986;2023-04-01T00:21:54;96752.16;;;8.29;83.26
55351;BME280;62194;49.480;10.986;2023-04-01T00:21:59;96748.97;;;8.23;83.19
55351;BME280;62194;49.480;10.986;2023-04-01T00:22:04;96753.72;;;8.30;83.23
55351;BME280;62194;49.480;10.986;2023-04-01T00:22:11;96742.41;;;8.24;83.25
55351;BME280;62194;49.480;10.986;2023-04-01T00:22:16;96752.16;;;8.29;83.29
55351;BME280;62194;49.480;10.986;2023-04-01T00:22:22;96748.66;;;8.28;83.34
55351;BME280;62194;49.480;10.986;2023-04-01T00:22:28;96745.47;;;8.23;83.26
55351;BME280;62194;49.480;10.986;2023-04-01T00:22:33;96750.94;;;8.26;83.19
55351;BME280;62194;49.480;10.986;2023-04-01T00:22:39;96747.50;;;8.29;83.43
55351;BME280;62194;49.480;10.986;2023-04-01T00:22:44;96756.44;;;8.30;83.44
55351;BME280;62194;49.480;10.986;2023-04-01T00:22:50;96753.38;;;8.31;83.39
55351;BME280;62194;49.480;10.986;2023-04-01T00:22:55;96749.44;;;8.29;83.29
55351;BME280;62194;49.480;10.986;2023-04-01T00:23:01;96761.56;;;8.35;83.45
55351;BME280;62194;49.480;10.986;2023-04-01T00:23:06;96756.47;;;8.33;83.46
55351;BME280;62194;49.480;10.986;2023-04-01T00:23:12;96757.63;;;8.32;83.46
55351;BME280;62194;49.480;10.986;2023-04-01T00:23:19;96755.31;;;8.31;83.63
55351;BME280;62194;49.480;10.986;2023-04-01T00:23:25;96759.91;;;8.30;83.88
55351;BME280;62194;49.480;10.986;2023-04-01T00:23:31;96755.66;;;8.29;83.76
55351;BME280;62194;49.480;10.986;2023-04-01T00:23:36;96752.88;;;8.26;83.63
55351;BME280;62194;49.480;10.986;2023-04-01T00:23:42;96746.63;;;8.21;83.48
55351;BME280;62194;49.480;10.986;2023-04-01T00:23:49;96735.38;;;8.23;83.51
55351;BME280;62194;49.480;10.986;2023-04-01T00:23:55;96756.47;;;8.33;83.42
55351;BME280;62194;49.480;10.986;2023-04-01T00:24:01;96742.81;;;8.26;83.61
55351;BME280;62194;49.480;10.986;2023-04-01T00:24:09;96742.03;;;8.26;83.06
55351;BME280;62194;49.480;10.986;2023-04-01T00:24:15;96745.53;;;8.26;83.23
55351;BME280;62194;49.480;10.986;2023-04-01T00:24:20;96750.22;;;8.29;83.32
55351;BME280;62194;49.480;10.986;2023-04-01T00:24:26;96752.50;;;8.27;83.45
55351;BME280;62194;49.480;10.986;2023-04-01T00:24:31;96748.22;;;8.26;83.29
55351;BME280;62194;49.480;10.986;2023-04-01T00:24:37;96745.91;;;8.25;83.38
55351;BME280;62194;49.480;10.986;2023-04-01T00:24:46;96751.44;;;8.32;83.57
55351;BME280;62194;49.480;10.986;2023-04-01T00:24:52;96740.47;;;8.25;83.26
55351;BME280;62194;49.480;10.986;2023-04-01T00:24:57;96746.69;;;8.25;83.08
55351;BME280;62194;49.480;10.986;2023-04-01T00:25:04;96750.22;;;8.29;82.71
55351;BME280;62194;49.480;10.986;2023-04-01T00:25:09;96750.59;;;8.28;82.72
55351;BME280;62194;49.480;10.986;2023-04-01T00:25:18;96753.31;;;8.28;82.74
55351;BME280;62194;49.480;10.986;2023-04-01T00:25:26;96766.22;;;8.34;82.93
55351;BME280;62194;49.480;10.986;2023-04-01T00:25:31;96756.44;;;8.30;83.13
55351;BME280;62194;49.480;10.986;2023-04-01T00:25:37;96740.47;;;8.25;83.17
55351;BME280;62194;49.480;10.986;2023-04-01T00:25:43;96745.94;;;8.28;83.26
55351;BME280;62194;49.480;10.986;2023-04-01T00:25:55;96753.72;;;8.30;82.96
55351;BME280;62194;49.480;10.986;2023-04-01T00:26:06;96754.50;;;8.30;82.98
55351;BME280;62194;49.480;10.986;2023-04-01T00:26:11;96744.75;;;8.26;83.33
55351;BME280;62194;49.480;10.986;2023-04-01T00:26:17;96751.78;;;8.30;83.22
55351;BME280;62194;49.480;10.986;2023-04-01T00:26:28;96738.88;;;8.24;83.03
55351;BME280;62194;49.480;10.986;2023-04-01T00:26:33;96739.25;;;8.22;83.11
55351;BME280;62194;49.480;10.986;2023-04-01T00:26:39;96742.81;;;8.26;83.10
55351;BME280;62194;49.480;10.986;2023-04-01T00:26:45;96742.03;;;8.26;83.03
55351;BME280;62194;49.480;10.986;2023-04-01T00:26:52;96740.09;;;8.26;82.74
55351;BME280;62194;49.480;10.986;2023-04-01T00:26:58;96756.91;;;8.35;82.79
55351;BME280;62194;49.480;10.986;2023-04-01T00:27:03;96748.66;;;8.28;82.65
55351;BME280;62194;49.480;10.986;2023-04-01T00:27:09;96752.50;;;8.27;82.84
55351;BME280;62194;49.480;10.986;2023-04-01T00:27:15;96748.66;;;8.28;82.78
55351;BME280;62194;49.480;10.986;2023-04-01T00:27:21;96749.78;;;8.27;82.78
55351;BME280;62194;49.480;10.986;2023-04-01T00:27:29;96759.56;;;8.32;82.88
55351;BME280;62194;49.480;10.986;2023-04-01T00:27:34;96745.94;;;8.28;83.00
55351;BME280;62194;49.480;10.986;2023-04-01T00:27:40;96746.78;;;8.32;83.04
55351;BME280;62194;49.480;10.986;2023-04-01T00:27:45;96745.22;;;8.31;82.92
55351;BME280;62194;49.480;10.986;2023-04-01T00:27:51;96749.13;;;8.34;82.54
55351;BME280;62194;49.480;10.986;2023-04-01T00:27:56;96753.81;;;8.37;82.67
55351;BME280;62194;49.480;10.986;2023-04-01T00:28:01;96741.72;;;8.31;82.75
55351;BME280;62194;49.480;10.986;2023-04-01T00:28:07;96734.66;;;8.26;82.88
55351;BME280;62194;49.480;10.986;2023-04-01T00:28:17;96752.25;;;8.36;83.13
55351;BME280;62194;49.480;10.986;2023-04-01T00:28:23;96753.41;;;8.35;83.25
55351;BME280;62194;49.480;10.986;2023-04-01T00:28:28;96739.31;;;8.26;83.06
55351;BME280;62194;49.480;10.986;2023-04-01T00:28:34;96745.22;;;8.31;83.01
55351;BME280;62194;49.480;10.986;2023-04-01T00:28:42;96753.03;;;8.36;82.98
55351;BME280;62194;49.480;10.986;2023-04-01T00:28:47;96746.72;;;8.29;82.94
55351;BME280;62194;49.480;10.986;2023-04-01T00:28:53;96747.56;;;8.33;83.00
55351;BME280;62194;49.480;10.986;2023-04-01T00:29:01;96743.97;;;8.25;82.80
55351;BME280;62194;49.480;10.986;2023-04-01T00:29:09;96745.94;;;8.28;83.04
55351;BME280;62194;49.480;10.986;2023-04-01T00:29:14;96746.28;;;8.27;82.96
55351;BME280;62194;49.480;10.986;2023-04-01T00:29:20;96756.84;;;8.32;82.93
55351;BME280;62194;49.480;10.986;2023-04-01T00:29:25;96749.00;;;8.27;83.09
55351;BME280;62194;49.480;10.986;2023-04-01T00:29:34;96762.28;;;8.32;82.92
55351;BME280;62194;49.480;10.986;2023-04-01T00:29:45;96752.59;;;8.31;83.18
55351;BME280;62194;49.480;10.986;2023-04-01T00:29:51;96748.63;;;8.25;83.16
55351;BME280;62194;49.480;10.986;2023-04-01T00:29:56;96742.03;;;8.26;83.10
55351;BME280;62194;49.480;10.986;2023-04-01T00:30:03;96740.03;;;8.23;83.13
55351;BME280;62194;49.480;10.986;2023-04-01T00:30:09;96746.34;;;8.30;83.07
55351;BME280;62194;49.480;10.986;2023-04-01T00:30:14;96756.09;;;8.31;83.21
55351;BME280;62194;49.480;10.986;2023-04-01T00:30:20;96742.44;;;8.28;83.03
55351;BME280;62194;49.480;10.986;2023-04-01T00:30:25;96751.78;;;8.30;83.04
55351;BME280;62194;49.480;10.986;2023-04-01T00:30:31;96747.47;;;8.26;83.21
55351;BME280;62194;49.480;10.986;2023-04-01T00:30:36;96748.72;;;8.32;83.10
55351;BME280;62194;49.480;10.986;2023-04-01T00:30:42;96750.22;;;8.29;83.09
55351;BME280;62194;49.480;10.986;2023-04-01T00:30:47;96760.34;;;8.32;83.00
55351;BME280;62194;49.480;10.986;2023-04-01T00:30:53;96762.28;;;8.32;82.93
55351;BME280;62194;49.480;10.986;2023-04-01T00:30:58;96742.41;;;8.24;83.22
55351;BME280;62194;49.480;10.986;2023-04-01T00:31:05;96751.38;;;8.28;83.13
55351;BME280;62194;49.480;10.986;2023-04-01T00:31:11;96750.16;;;8.26;83.06
55351;BME280;62194;49.480;10.986;2023-04-01T00:31:16;96748.63;;;8.25;83.03
55351;BME280;62194;49.480;10.986;2023-04-01T00:31:22;96749.06;;;8.30;83.04
55351;BME280;62194;49.480;10.986;2023-04-01T00:31:27;96742.81;;;8.26;82.92